Time,TemperatureF,DewpointF,PressureIn,WindDirection,WindDirectionDegrees,WindSpeedMPH,WindSpeedGustMPH,Humidity,HourlyPrecipIn,Conditions,Clouds,dailyrainin,SolarRadiationWatts/m^2,SoftwareType,DateUTC
2013-12-04 00:12:00,30.9,28.0,29.88,WNW,286,6.0,10.0,88,0.00,,,0.00,0,weatherlink.com 1.10,2013-12-04 05:12:00,
2013-12-04 00:28:00,30.6,28.0,29.88,WNW,293,5.0,9.0,89,0.00,,,0.00,0,weatherlink.com 1.10,2013-12-04 05:28:00,
2013-12-04 00:43:00,30.3,28.0,29.89,West,270,6.0,8.0,89,0.00,,,0.00,0,weatherlink.com 1.10,2013-12-04 05:43:00,
2013-12-04 00:58:00,30.1,28.0,29.89,West,267,5.0,8.0,90,0.00,,,0.00,0,weatherlink.com 1.10,2013-12-04 05:58:00,
2013-12-04 01:13:00,29.7,27.0,29.89,West,269,4.0,6.0,90,0.00,,,0.00,0,weatherlink.com 1.10,2013-12-04 06:13:00,
2013-12-04 01:28:00,29.5,27.0,29.89,West,269,0.0,6.0,91,0.00,,,0.00,0,weatherlink.com 1.10,2013-12-04 06:28:00,
2013-12-04 01:43:00,29.5,27.0,29.90,West,265,0.0,9.0,91,0.00,,,0.00,0,weatherlink.com 1.10,2013-12-04 06:43:00,
2013-12-04 01:58:00,29.3,27.0,29.90,West,265,3.0,5.0,91,0.00,,,0.00,0,weatherlink.com 1.10,2013-12-04 06:58:00,
2013-12-04 02:13:00,29.1,27.0,29.90,West,265,0.0,4.0,91,0.00,,,0.00,0,weatherlink.com 1.10,2013-12-04 07:13:00,
2013-12-04 02:28:00,29.1,27.0,29.90,West,265,4.0,4.0,91,0.00,,,0.00,0,weatherlink.com 1.10,2013-12-04 07:28:00,
2013-12-04 02:43:00,28.4,26.0,29.91,West,265,4.0,5.0,91,0.00,,,0.00,0,weatherlink.com 1.10,2013-12-04 07:43:00,
2013-12-04 02:58:00,28.7,27.0,29.91,West,267,8.0,9.0,92,0.00,,,0.00,0,weatherlink.com 1.10,2013-12-04 07:58:00,
2013-12-04 03:13:00,29.3,27.0,29.91,West,265,4.0,10.0,91,0.00,,,0.00,0,weatherlink.com 1.10,2013-12-04 08:13:00,
2013-12-04 03:28:00,29.4,27.0,29.91,West,265,4.0,8.0,90,0.00,,,0.00,0,weatherlink.com 1.10,2013-12-04 08:28:00,
2013-12-04 03:43:00,29.5,27.0,29.91,West,259,8.0,9.0,89,0.00,,,0.00,0,weatherlink.com 1.10,2013-12-04 08:43:00,
2013-12-04 03:58:00,29.7,27.0,29.92,WSW,254,7.0,11.0,88,0.00,,,0.00,0,weatherlink.com 1.10,2013-12-04 08:58:00,
2013-12-04 04:13:00,30.1,27.0,29.92,West,264,9.0,13.0,88,0.00,,,0.00,0,weatherlink.com 1.10,2013-12-04 09:13:00,
2013-12-04 04:28:00,30.3,27.0,29.92,West,275,4.0,11.0,87,0.00,,,0.00,0,weatherlink.com 1.10,2013-12-04 09:28:00,
2013-12-04 04:43:00,29.4,26.0,29.92,WNW,302,4.0,7.0,87,0.00,,,0.00,0,weatherlink.com 1.10,2013-12-04 09:43:00,
2013-12-04 04:58:00,28.8,26.0,29.92,WNW,299,3.0,7.0,88,0.00,,,0.00,0,weatherlink.com 1.10,2013-12-04 09:58:00,
2013-12-04 05:13:00,28.7,26.0,29.93,West,273,5.0,9.0,89,0.00,,,0.00,0,weatherlink.com 1.10,2013-12-04 10:13:00,
2013-12-04 05:28:00,28.8,26.0,29.93,West,274,1.0,8.0,88,0.00,,,0.00,0,weatherlink.com 1.10,2013-12-04 10:28:00,
2013-12-04 05:43:00,28.7,26.0,29.94,West,274,2.0,6.0,88,0.00,,,0.00,0,weatherlink.com 1.10,2013-12-04 10:43:00,
2013-12-04 05:58:00,28.8,26.0,29.95,West,271,4.0,7.0,88,0.00,,,0.00,0,weatherlink.com 1.10,2013-12-04 10:58:00,
2013-12-04 06:13:00,28.7,25.0,29.95,West,271,2.0,7.0,87,0.00,,,0.00,0,weatherlink.com 1.10,2013-12-04 11:13:00,
2013-12-04 06:28:00,28.5,25.0,29.96,West,271,1.0,5.0,87,0.00,,,0.00,0,weatherlink.com 1.10,2013-12-04 11:28:00,
2013-12-04 06:43:00,28.1,25.0,29.97,West,271,5.0,7.0,86,0.00,,,0.00,0,weatherlink.com 1.10,2013-12-04 11:43:00,
2013-12-04 06:58:00,27.6,24.0,29.98,West,265,8.0,8.0,87,0.00,,,0.00,0,weatherlink.com 1.10,2013-12-04 11:58:00,
2013-12-04 07:13:00,27.5,24.0,29.99,WSW,258,7.0,8.0,87,0.00,,,0.00,11,weatherlink.com 1.10,2013-12-04 12:13:00,
2013-12-04 07:28:00,27.8,24.0,29.99,WNW,285,8.0,11.0,85,0.00,,,0.00,21,weatherlink.com 1.10,2013-12-04 12:28:00,
2013-12-04 07:43:00,28.4,24.0,30.00,West,275,9.0,13.0,82,0.00,,,0.00,30,weatherlink.com 1.10,2013-12-04 12:43:00,
2013-12-04 07:58:00,29.0,23.0,30.01,WNW,284,7.0,12.0,79,0.00,,,0.00,42,weatherlink.com 1.10,2013-12-04 12:58:00,
2013-12-04 08:13:00,29.8,22.0,30.01,West,279,5.0,11.0,74,0.00,,,0.00,102,weatherlink.com 1.10,2013-12-04 13:13:00,
2013-12-04 08:28:00,30.9,23.0,30.01,WSW,258,2.0,11.0,71,0.00,,,0.00,105,weatherlink.com 1.10,2013-12-04 13:28:00,
2013-12-04 08:43:00,31.6,23.0,30.01,WNW,287,7.0,11.0,70,0.00,,,0.00,153,weatherlink.com 1.10,2013-12-04 13:43:00,
2013-12-04 08:58:00,32.4,24.0,30.01,West,269,10.0,12.0,70,0.00,,,0.00,230,weatherlink.com 1.10,2013-12-04 13:58:00,
2013-12-04 09:14:00,32.7,23.0,30.02,West,277,7.0,12.0,68,0.00,,,0.00,148,weatherlink.com 1.10,2013-12-04 14:14:00,
2013-12-04 09:29:00,32.9,23.0,30.02,West,277,11.0,15.0,67,0.00,,,0.00,137,weatherlink.com 1.10,2013-12-04 14:29:00,
2013-12-04 09:44:00,33.4,23.0,30.03,West,263,5.0,14.0,67,0.00,,,0.00,232,weatherlink.com 1.10,2013-12-04 14:44:00,
2013-12-04 09:59:00,34.4,24.0,30.03,West,279,7.0,12.0,66,0.00,,,0.00,199,weatherlink.com 1.10,2013-12-04 14:59:00,
2013-12-04 10:14:00,34.7,24.0,30.03,West,267,2.0,10.0,65,0.00,,,0.00,156,weatherlink.com 1.10,2013-12-04 15:14:00,
2013-12-04 10:29:00,35.0,24.0,30.03,West,265,5.0,12.0,64,0.00,,,0.00,149,weatherlink.com 1.10,2013-12-04 15:29:00,
2013-12-04 10:44:00,35.3,24.0,30.03,WNW,283,0.0,12.0,63,0.00,,,0.00,123,weatherlink.com 1.10,2013-12-04 15:44:00,
2013-12-04 10:59:00,35.5,24.0,30.02,West,277,5.0,12.0,62,0.00,,,0.00,102,weatherlink.com 1.10,2013-12-04 15:59:00,
2013-12-04 11:14:00,35.5,24.0,30.02,WNW,291,7.0,11.0,63,0.00,,,0.00,113,weatherlink.com 1.10,2013-12-04 16:14:00,
2013-12-04 11:29:00,36.2,24.0,30.02,WNW,297,6.0,11.0,62,0.00,,,0.00,195,weatherlink.com 1.10,2013-12-04 16:29:00,
2013-12-04 11:44:00,36.3,24.0,30.02,WNW,286,5.0,11.0,61,0.00,,,0.00,179,weatherlink.com 1.10,2013-12-04 16:44:00,
2013-12-04 11:59:00,37.8,25.0,30.02,NW,308,3.0,19.0,60,0.00,,,0.00,480,weatherlink.com 1.10,2013-12-04 16:59:00,
2013-12-04 12:14:00,37.5,24.0,30.02,NW,309,6.0,14.0,59,0.00,,,0.00,172,weatherlink.com 1.10,2013-12-04 17:14:00,
2013-12-04 12:29:00,37.9,23.0,30.02,NNW,338,4.0,9.0,56,0.00,,,0.00,172,weatherlink.com 1.10,2013-12-04 17:29:00,
2013-12-04 12:44:00,38.5,24.0,30.01,North,-999,0.0,8.0,57,0.00,,,0.00,183,weatherlink.com 1.10,2013-12-04 17:44:00,
2013-12-04 12:59:00,38.6,24.0,30.02,WNW,293,5.0,10.0,56,0.00,,,0.00,153,weatherlink.com 1.10,2013-12-04 17:59:00,
2013-12-04 13:14:00,39.2,24.0,30.02,West,265,8.0,13.0,54,0.00,,,0.00,151,weatherlink.com 1.10,2013-12-04 18:14:00,
2013-12-04 13:29:00,38.6,24.0,30.03,NNW,336,10.0,12.0,55,0.00,,,0.00,155,weatherlink.com 1.10,2013-12-04 18:29:00,
2013-12-04 13:44:00,39.3,24.0,30.02,NW,315,7.0,12.0,55,0.00,,,0.00,151,weatherlink.com 1.10,2013-12-04 18:44:00,
2013-12-04 13:59:00,39.2,24.0,30.02,West,280,2.0,11.0,55,0.00,,,0.00,139,weatherlink.com 1.10,2013-12-04 18:59:00,
2013-12-04 14:14:00,38.9,24.0,30.02,NW,313,5.0,10.0,55,0.00,,,0.00,95,weatherlink.com 1.10,2013-12-04 19:14:00,
2013-12-04 14:29:00,39.2,24.0,30.03,NW,310,4.0,8.0,54,0.00,,,0.00,114,weatherlink.com 1.10,2013-12-04 19:29:00,
2013-12-04 14:45:00,38.6,24.0,30.03,NW,310,0.0,0.0,55,0.00,,,0.00,37,weatherlink.com 1.10,2013-12-04 19:45:00,
2013-12-04 14:59:00,37.8,24.0,30.04,NW,310,0.0,0.0,59,0.00,,,0.00,37,weatherlink.com 1.10,2013-12-04 19:59:00,
2013-12-04 15:14:00,37.9,24.0,30.04,NW,309,0.0,4.0,58,0.00,,,0.00,40,weatherlink.com 1.10,2013-12-04 20:14:00,
2013-12-04 15:29:00,37.9,24.0,30.05,NW,309,0.0,6.0,58,0.00,,,0.00,30,weatherlink.com 1.10,2013-12-04 20:29:00,
2013-12-04 15:44:00,38.3,24.0,30.06,NW,309,0.0,0.0,57,0.00,,,0.00,26,weatherlink.com 1.10,2013-12-04 20:44:00,
2013-12-04 15:59:00,37.5,24.0,30.06,NW,309,0.0,0.0,59,0.00,,,0.00,12,weatherlink.com 1.10,2013-12-04 20:59:00,
2013-12-04 16:14:00,36.0,25.0,30.06,NW,309,4.0,6.0,64,0.00,,,0.00,0,weatherlink.com 1.10,2013-12-04 21:14:00,
2013-12-04 16:29:00,36.8,24.0,30.06,NW,309,6.0,6.0,60,0.00,,,0.00,0,weatherlink.com 1.10,2013-12-04 21:29:00,
2013-12-04 16:44:00,36.5,24.0,30.07,NW,309,0.0,6.0,60,0.00,,,0.00,0,weatherlink.com 1.10,2013-12-04 21:44:00,
2013-12-04 16:59:00,35.0,23.0,30.08,NW,309,0.0,0.0,63,0.00,,,0.00,0,weatherlink.com 1.10,2013-12-04 21:59:00,
2013-12-04 17:14:00,34.9,24.0,30.08,NW,309,0.0,0.0,64,0.00,,,0.00,0,weatherlink.com 1.10,2013-12-04 22:14:00,
2013-12-04 17:29:00,35.2,24.0,30.08,NW,309,0.0,0.0,63,0.00,,,0.00,0,weatherlink.com 1.10,2013-12-04 22:29:00,
2013-12-04 17:44:00,35.2,24.0,30.09,NW,309,2.0,5.0,64,0.00,,,0.00,0,weatherlink.com 1.10,2013-12-04 22:44:00,
2013-12-04 17:59:00,34.9,24.0,30.09,NW,309,0.0,4.0,65,0.00,,,0.00,0,weatherlink.com 1.10,2013-12-04 22:59:00,
2013-12-04 18:15:00,34.4,24.0,30.09,NW,309,0.0,0.0,66,0.00,,,0.00,0,weatherlink.com 1.10,2013-12-04 23:15:00,
2013-12-04 18:29:00,34.6,25.0,30.10,NW,309,0.0,0.0,67,0.00,,,0.00,0,weatherlink.com 1.10,2013-12-04 23:29:00,
2013-12-04 18:44:00,34.7,24.0,30.11,NW,309,0.0,4.0,66,0.00,,,0.00,0,weatherlink.com 1.10,2013-12-04 23:44:00,
2013-12-04 18:59:00,34.6,24.0,30.11,NW,309,0.0,5.0,66,0.00,,,0.00,0,weatherlink.com 1.10,2013-12-04 23:59:00,
2013-12-04 19:14:00,34.3,24.0,30.11,NW,309,0.0,1.0,67,0.00,,,0.00,0,weatherlink.com 1.10,2013-12-05 00:14:00,
2013-12-04 19:29:00,34.0,24.0,30.11,NW,307,0.0,5.0,68,0.00,,,0.00,0,weatherlink.com 1.10,2013-12-05 00:29:00,
2013-12-04 19:44:00,33.7,24.0,30.10,NW,307,0.0,0.0,68,0.00,,,0.00,0,weatherlink.com 1.10,2013-12-05 00:44:00,
2013-12-04 19:59:00,33.7,24.0,30.11,NW,307,5.0,6.0,68,0.00,,,0.00,0,weatherlink.com 1.10,2013-12-05 00:59:00,
2013-12-04 20:14:00,33.7,25.0,30.11,NW,306,0.0,5.0,69,0.00,,,0.00,0,weatherlink.com 1.10,2013-12-05 01:14:00,
2013-12-04 20:29:00,33.5,24.0,30.11,WNW,302,3.0,6.0,69,0.00,,,0.00,0,weatherlink.com 1.10,2013-12-05 01:29:00,
2013-12-04 20:44:00,33.5,24.0,30.11,WNW,302,0.0,0.0,69,0.00,,,0.00,0,weatherlink.com 1.10,2013-12-05 01:44:00,
2013-12-04 20:59:00,33.2,24.0,30.11,WNW,302,0.0,0.0,70,0.00,,,0.00,0,weatherlink.com 1.10,2013-12-05 01:59:00,
2013-12-04 21:14:00,33.1,24.0,30.12,WNW,302,0.0,0.0,70,0.00,,,0.00,0,weatherlink.com 1.10,2013-12-05 02:14:00,
2013-12-04 21:29:00,33.1,24.0,30.12,WNW,302,0.0,0.0,70,0.00,,,0.00,0,weatherlink.com 1.10,2013-12-05 02:29:00,
2013-12-04 21:44:00,32.8,24.0,30.12,WNW,302,1.0,1.0,71,0.00,,,0.00,0,weatherlink.com 1.10,2013-12-05 02:44:00,
2013-12-04 21:59:00,32.2,24.0,30.12,WNW,302,0.0,0.0,72,0.00,,,0.00,0,weatherlink.com 1.10,2013-12-05 02:59:00,
2013-12-04 22:14:00,31.6,24.0,30.12,WNW,302,0.0,0.0,74,0.00,,,0.00,0,weatherlink.com 1.10,2013-12-05 03:14:00,
2013-12-04 22:29:00,31.2,24.0,30.12,WNW,302,0.0,0.0,75,0.00,,,0.00,0,weatherlink.com 1.10,2013-12-05 03:29:00,
2013-12-04 22:44:00,31.0,24.0,30.11,WNW,302,0.0,0.0,75,0.00,,,0.00,0,weatherlink.com 1.10,2013-12-05 03:44:00,
2013-12-04 22:59:00,30.7,24.0,30.12,WNW,302,0.0,0.0,76,0.00,,,0.00,0,weatherlink.com 1.10,2013-12-05 03:59:00,
2013-12-04 23:14:00,30.6,24.0,30.13,WNW,302,0.0,0.0,77,0.00,,,0.00,0,weatherlink.com 1.10,2013-12-05 04:14:00,
2013-12-04 23:29:00,30.4,24.0,30.13,WNW,302,0.0,2.0,78,0.00,,,0.00,0,weatherlink.com 1.10,2013-12-05 04:29:00,
2013-12-04 23:44:00,30.4,24.0,30.13,WNW,302,2.0,2.0,78,0.00,,,0.00,0,weatherlink.com 1.10,2013-12-05 04:44:00,
2013-12-04 23:59:00,30.6,25.0,30.12,WNW,302,0.0,0.0,78,0.00,,,0.00,0,weatherlink.com 1.10,2013-12-05 04:59:00,